sensor_id;sensor_type;location;lat;lon;timestamp;temperature;humidity
8261;DHT22;64115;50.170;8.242;2023-07-29T00:00:57;16.60;99.90
8261;DHT22;64115;50.170;8.242;2023-07-29T00:03:28;16.60;99.90
8261;DHT22;64115;50.170;8.242;2023-07-29T00:05:58;16.60;99.90
8261;DHT22;64115;50.170;8.242;2023-07-29T00:08:25;16.60;99.90
8261;DHT22;64115;50.170;8.242;2023-07-29T00:10:51;16.70;99.90
8261;DHT22;64115;50.170;8.242;2023-07-29T00:13:18;16.70;99.90
8261;DHT22;64115;50.170;8.242;2023-07-29T00:15:45;16.70;99.90
8261;DHT22;64115;50.170;8.242;2023-07-29T00:18:13;16.80;99.90
8261;DHT22;64115;50.170;8.242;2023-07-29T00:20:40;16.80;99.90
8261;DHT22;64115;50.170;8.242;2023-07-29T00:23:11;16.80;99.90
8261;DHT22;64115;50.170;8.242;2023-07-29T00:25:37;16.80;99.90
8261;DHT22;64115;50.170;8.242;2023-07-29T00:28:06;16.80;99.90
8261;DHT22;64115;50.170;8.242;2023-07-29T00:30:32;16.80;99.90
8261;DHT22;64115;50.170;8.242;2023-07-29T00:32:59;16.80;99.90
8261;DHT22;64115;50.170;8.242;2023-07-29T00:35:27;16.80;99.90
8261;DHT22;64115;50.170;8.242;2023-07-29T00:37:54;16.80;99.90
8261;DHT22;64115;50.170;8.242;2023-07-29T00:40:22;16.80;99.90
8261;DHT22;64115;50.170;8.242;2023-07-29T00:42:49;16.80;99.90
8261;DHT22;64115;50.170;8.242;2023-07-29T00:45:17;16.80;99.90
8261;DHT22;64115;50.170;8.242;2023-07-29T00:47:43;16.80;99.90
8261;DHT22;64115;50.170;8.242;2023-07-29T00:50:11;16.80;99.90
8261;DHT22;64115;50.170;8.242;2023-07-29T00:52:40;16.80;99.90
8261;DHT22;64115;50.170;8.242;2023-07-29T00:55:08;16.70;99.90
8261;DHT22;64115;50.170;8.242;2023-07-29T00:57:35;16.80;99.90
8261;DHT22;64115;50.170;8.242;2023-07-29T01:00:03;16.80;99.90
8261;DHT22;64115;50.170;8.242;2023-07-29T01:02:30;16.70;99.90
8261;DHT22;64115;50.170;8.242;2023-07-29T01:04:58;16.70;99.90
8261;DHT22;64115;50.170;8.242;2023-07-29T01:07:30;16.70;99.90
8261;DHT22;64115;50.170;8.242;2023-07-29T01:10:03;16.70;99.90
8261;DHT22;64115;50.170;8.242;2023-07-29T01:12:36;16.70;99.90
8261;DHT22;64115;50.170;8.242;2023-07-29T01:15:11;16.70;99.90
8261;DHT22;64115;50.170;8.242;2023-07-29T01:17:42;16.60;99.90
8261;DHT22;64115;50.170;8.242;2023-07-29T01:20:12;16.60;99.90
8261;DHT22;64115;50.170;8.242;2023-07-29T01:22:40;16.60;99.90
8261;DHT22;64115;50.170;8.242;2023-07-29T01:25:09;16.60;99.90
8261;DHT22;64115;50.170;8.242;2023-07-29T01:27:36;16.60;99.90
8261;DHT22;64115;50.170;8.242;2023-07-29T01:30:04;16.60;99.90
8261;DHT22;64115;50.170;8.242;2023-07-29T01:32:36;16.50;99.90
8261;DHT22;64115;50.170;8.242;2023-07-29T01:35:10;16.50;99.90
8261;DHT22;64115;50.170;8.242;2023-07-29T01:37:41;16.50;99.90
8261;DHT22;64115;50.170;8.242;2023-07-29T01:40:10;16.50;99.90
8261;DHT22;64115;50.170;8.242;2023-07-29T01:42:37;16.50;99.90
8261;DHT22;64115;50.170;8.242;2023-07-29T01:45:05;16.50;99.90
8261;DHT22;64115;50.170;8.242;2023-07-29T01:47:32;16.50;99.90
8261;DHT22;64115;50.170;8.242;2023-07-29T01:49:59;16.50;99.90
8261;DHT22;64115;50.170;8.242;2023-07-29T01:52:25;16.60;99.90
8261;DHT22;64115;50.170;8.242;2023-07-29T01:54:52;16.60;99.90
8261;DHT22;64115;50.170;8.242;2023-07-29T01:57:31;16.70;99.90
8261;DHT22;64115;50.170;8.242;2023-07-29T01:59:58;16.60;99.90
8261;DHT22;64115;50.170;8.242;2023-07-29T02:02:25;16.70;99.90
8261;DHT22;64115;50.170;8.242;2023-07-29T02:04:51;16.70;99.90
8261;DHT22;64115;50.170;8.242;2023-07-29T02:07:18;16.70;99.90
8261;DHT22;64115;50.170;8.242;2023-07-29T02:09:47;16.70;99.90
8261;DHT22;64115;50.170;8.242;2023-07-29T02:12:14;16.70;99.90
8261;DHT22;64115;50.170;8.242;2023-07-29T02:14:42;16.70;99.90
8261;DHT22;64115;50.170;8.242;2023-07-29T02:17:09;16.70;99.90
8261;DHT22;64115;50.170;8.242;2023-07-29T02:19:35;16.70;99.90
8261;DHT22;64115;50.170;8.242;2023-07-29T02:22:02;16.70;99.90
8261;DHT22;64115;50.170;8.242;2023-07-29T02:24:29;16.80;99.90
8261;DHT22;64115;50.170;8.242;2023-07-29T02:26:56;16.80;99.90
8261;DHT22;64115;50.170;8.242;2023-07-29T02:29:23;16.80;99.90
8261;DHT22;64115;50.170;8.242;2023-07-29T02:31:52;16.80;99.90
8261;DHT22;64115;50.170;8.242;2023-07-29T02:34:19;16.80;99.90
8261;DHT22;64115;50.170;8.242;2023-07-29T02:36:45;16.80;99.90
8261;DHT22;64115;50.170;8.242;2023-07-29T02:39:12;16.80;99.90
8261;DHT22;64115;50.170;8.242;2023-07-29T02:41:39;16.80;99.90
8261;DHT22;64115;50.170;8.242;2023-07-29T02:44:08;16.80;99.90
8261;DHT22;64115;50.170;8.242;2023-07-29T02:46:34;16.80;99.90
8261;DHT22;64115;50.170;8.242;2023-07-29T02:49:03;16.80;99.90
8261;DHT22;64115;50.170;8.242;2023-07-29T02:51:30;16.80;99.90
8261;DHT22;64115;50.170;8.242;2023-07-29T02:53:57;16.70;99.90
8261;DHT22;64115;50.170;8.242;2023-07-29T02:56:24;16.70;99.90
8261;DHT22;64115;50.170;8.242;2023-07-29T02:58:50;16.70;99.90
8261;DHT22;64115;50.170;8.242;2023-07-29T03:01:17;16.70;99.90
8261;DHT22;64115;50.170;8.242;2023-07-29T03:03:44;16.70;99.90
8261;DHT22;64115;50.170;8.242;2023-07-29T03:06:14;16.70;99.90
8261;DHT22;64115;50.170;8.242;2023-07-29T03:08:41;16.70;99.90
8261;DHT22;64115;50.170;8.242;2023-07-29T03:11:09;16.70;99.90
8261;DHT22;64115;50.170;8.242;2023-07-29T03:13:36;16.60;99.90
8261;DHT22;64115;50.170;8.242;2023-07-29T03:16:06;16.60;99.90
8261;DHT22;64115;50.170;8.242;2023-07-29T03:18:33;16.60;99.90
8261;DHT22;64115;50.170;8.242;2023-07-29T03:21:00;16.50;99.90
8261;DHT22;64115;50.170;8.242;2023-07-29T03:23:29;16.40;99.90
8261;DHT22;64115;50.170;8.242;2023-07-29T03:26:01;16.40;99.90
8261;DHT22;64115;50.170;8.242;2023-07-29T03:28:31;16.30;99.90
8261;DHT22;64115;50.170;8.242;2023-07-29T03:30:59;16.30;99.90
8261;DHT22;64115;50.170;8.242;2023-07-29T03:33:26;16.30;99.90
8261;DHT22;64115;50.170;8.242;2023-07-29T03:35:53;16.30;99.90
8261;DHT22;64115;50.170;8.242;2023-07-29T03:38:19;16.30;99.90
8261;DHT22;64115;50.170;8.242;2023-07-29T03:40:48;16.30;99.90
8261;DHT22;64115;50.170;8.242;2023-07-29T03:43:15;16.40;99.90
8261;DHT22;64115;50.170;8.242;2023-07-29T03:45:42;16.50;99.90
8261;DHT22;64115;50.170;8.242;2023-07-29T03:48:08;16.50;99.90
8261;DHT22;64115;50.170;8.242;2023-07-29T03:50:36;16.50;99.90
8261;DHT22;64115;50.170;8.242;2023-07-29T03:53:05;16.60;99.90
8261;DHT22;64115;50.170;8.242;2023-07-29T03:55:32;16.60;99.90
8261;DHT22;64115;50.170;8.242;2023-07-29T03:58:03;16.60;99.90
8261;DHT22;64115;50.170;8.242;2023-07-29T04:00:29;16.70;99.90
8261;DHT22;64115;50.170;8.242;2023-07-29T04:02:56;16.70;99.90
8261;DHT22;64115;50.170;8.242;2023-07-29T04:05:23;16.60;99.90
8261;DHT22;64115;50.170;8.242;2023-07-29T04:07:50;16.70;99.90
8261;DHT22;64115;50.170;8.242;2023-07-29T04:10:17;16.70;99.90
8261;DHT22;64115;50.170;8.242;2023-07-29T04:12:44;16.70;99.90
8261;DHT22;64115;50.170;8.242;2023-07-29T04:15:12;16.70;99.90
8261;DHT22;64115;50.170;8.242;2023-07-29T04:17:39;16.70;99.90
8261;DHT22;64115;50.170;8.242;2023-07-29T04:20:06;16.70;99.90
8261;DHT22;64115;50.170;8.242;2023-07-29T04:22:33;16.60;99.90
8261;DHT22;64115;50.170;8.242;2023-07-29T04:25:00;16.60;99.90
8261;DHT22;64115;50.170;8.242;2023-07-29T04:27:27;16.60;99.90
8261;DHT22;64115;50.170;8.242;2023-07-29T04:29:59;16.60;99.90
8261;DHT22;64115;50.170;8.242;2023-07-29T04:32:27;16.60;99.90
8261;DHT22;64115;50.170;8.242;2023-07-29T04:34:53;16.60;99.90
8261;DHT22;64115;50.170;8.242;2023-07-29T04:37:21;16.60;99.90
8261;DHT22;64115;50.170;8.242;2023-07-29T04:39:47;16.60;99.90
8261;DHT22;64115;50.170;8.242;2023-07-29T04:42:14;16.60;99.90
8261;DHT22;64115;50.170;8.242;2023-07-29T04:44:41;16.60;99.90
8261;DHT22;64115;50.170;8.242;2023-07-29T04:47:08;16.70;99.90
8261;DHT22;64115;50.170;8.242;2023-07-29T04:49:37;16.70;99.90
8261;DHT22;64115;50.170;8.242;2023-07-29T04:52:04;16.70;99.90
8261;DHT22;64115;50.170;8.242;2023-07-29T04:54:31;16.70;99.90
8261;DHT22;64115;50.170;8.242;2023-07-29T04:57:00;16.80;99.90
8261;DHT22;64115;50.170;8.242;2023-07-29T04:59:27;16.80;99.90
8261;DHT22;64115;50.170;8.242;2023-07-29T05:01:57;16.90;99.90
8261;DHT22;64115;50.170;8.242;2023-07-29T05:04:23;16.90;99.90
8261;DHT22;64115;50.170;8.242;2023-07-29T05:06:51;16.90;99.90
8261;DHT22;64115;50.170;8.242;2023-07-29T05:09:19;17.00;99.90
8261;DHT22;64115;50.170;8.242;2023-07-29T05:11:46;17.00;99.90
8261;DHT22;64115;50.170;8.242;2023-07-29T05:14:15;17.00;99.90
8261;DHT22;64115;50.170;8.242;2023-07-29T05:16:45;17.10;99.90
8261;DHT22;64115;50.170;8.242;2023-07-29T05:19:13;17.20;99.90
8261;DHT22;64115;50.170;8.242;2023-07-29T05:21:40;17.20;99.90
8261;DHT22;64115;50.170;8.242;2023-07-29T05:24:08;17.30;99.90
8261;DHT22;64115;50.170;8.242;2023-07-29T05:26:35;17.40;99.90
8261;DHT22;64115;50.170;8.242;2023-07-29T05:29:03;17.40;99.90
8261;DHT22;64115;50.170;8.242;2023-07-29T05:31:30;17.60;99.90
8261;DHT22;64115;50.170;8.242;2023-07-29T05:33:59;17.70;99.90
8261;DHT22;64115;50.170;8.242;2023-07-29T05:36:26;17.90;99.90
8261;DHT22;64115;50.170;8.242;2023-07-29T05:38:52;18.00;99.90
8261;DHT22;64115;50.170;8.242;2023-07-29T05:41:22;18.10;99.90
8261;DHT22;64115;50.170;8.242;2023-07-29T05:43:49;18.20;99.90
8261;DHT22;64115;50.170;8.242;2023-07-29T05:46:16;18.30;99.90
8261;DHT22;64115;50.170;8.242;2023-07-29T05:48:42;18.30;99.90
8261;DHT22;64115;50.170;8.242;2023-07-29T05:51:11;18.30;99.90
8261;DHT22;64115;50.170;8.242;2023-07-29T05:53:40;18.20;99.90
8261;DHT22;64115;50.170;8.242;2023-07-29T05:56:07;18.10;99.90
8261;DHT22;64115;50.170;8.242;2023-07-29T05:58:37;18.00;99.90
8261;DHT22;64115;50.170;8.242;2023-07-29T06:01:06;17.90;99.90
8261;DHT22;64115;50.170;8.242;2023-07-29T06:03:33;17.90;99.90
8261;DHT22;64115;50.170;8.242;2023-07-29T06:05:59;17.90;99.90
8261;DHT22;64115;50.170;8.242;2023-07-29T06:08:26;17.80;99.90
8261;DHT22;64115;50.170;8.242;2023-07-29T06:10:54;17.70;99.90
8261;DHT22;64115;50.170;8.242;2023-07-29T06:13:21;17.70;99.90
8261;DHT22;64115;50.170;8.242;2023-07-29T06:15:49;17.70;99.90
8261;DHT22;64115;50.170;8.242;2023-07-29T06:18:16;17.70;99.90
8261;DHT22;64115;50.170;8.242;2023-07-29T06:20:43;17.60;99.90
8261;DHT22;64115;50.170;8.242;2023-07-29T06:23:10;17.60;99.90
8261;DHT22;64115;50.170;8.242;2023-07-29T06:25:36;17.60;99.90
8261;DHT22;64115;50.170;8.242;2023-07-29T06:28:03;17.60;99.90
8261;DHT22;64115;50.170;8.242;2023-07-29T06:30:31;17.60;99.90
8261;DHT22;64115;50.170;8.242;2023-07-29T06:32:59;17.70;99.90
8261;DHT22;64115;50.170;8.242;2023-07-29T06:35:25;17.60;99.90
8261;DHT22;64115;50.170;8.242;2023-07-29T06:37:52;17.60;99.90
8261;DHT22;64115;50.170;8.242;2023-07-29T06:40:19;17.70;99.90
8261;DHT22;64115;50.170;8.242;2023-07-29T06:42:46;17.60;99.90
8261;DHT22;64115;50.170;8.242;2023-07-29T06:45:12;17.70;99.90
8261;DHT22;64115;50.170;8.242;2023-07-29T06:47:41;17.60;99.90
8261;DHT22;64115;50.170;8.242;2023-07-29T06:50:09;17.60;99.90
8261;DHT22;64115;50.170;8.242;2023-07-29T06:52:36;17.60;99.90
8261;DHT22;64115;50.170;8.242;2023-07-29T06:55:04;17.50;99.90
8261;DHT22;64115;50.170;8.242;2023-07-29T06:57:31;17.40;99.90
8261;DHT22;64115;50.170;8.242;2023-07-29T06:59:58;17.40;99.90
8261;DHT22;64115;50.170;8.242;2023-07-29T07:02:24;17.40;99.90
8261;DHT22;64115;50.170;8.242;2023-07-29T07:04:51;17.40;99.90
8261;DHT22;64115;50.170;8.242;2023-07-29T07:07:19;17.40;99.90
8261;DHT22;64115;50.170;8.242;2023-07-29T07:09:46;17.40;99.90
8261;DHT22;64115;50.170;8.242;2023-07-29T07:12:13;17.40;99.90
8261;DHT22;64115;50.170;8.242;2023-07-29T07:14:40;17.60;99.90
8261;DHT22;64115;50.170;8.242;2023-07-29T07:17:06;17.70;99.90
8261;DHT22;64115;50.170;8.242;2023-07-29T07:19:33;17.80;99.90
8261;DHT22;64115;50.170;8.242;2023-07-29T07:22:00;17.90;99.90
8261;DHT22;64115;50.170;8.242;2023-07-29T07:24:28;18.00;99.90
8261;DHT22;64115;50.170;8.242;2023-07-29T07:26:55;18.20;99.90
8261;DHT22;64115;50.170;8.242;2023-07-29T07:29:21;18.30;99.90
8261;DHT22;64115;50.170;8.242;2023-07-29T07:31:50;18.40;99.90
8261;DHT22;64115;50.170;8.242;2023-07-29T07:34:20;18.60;99.90
8261;DHT22;64115;50.170;8.242;2023-07-29T07:36:47;18.60;99.90
8261;DHT22;64115;50.170;8.242;2023-07-29T07:39:16;18.70;99.90
8261;DHT22;64115;50.170;8.242;2023-07-29T07:41:44;18.80;99.90
8261;DHT22;64115;50.170;8.242;2023-07-29T07:44:14;18.80;99.90
8261;DHT22;64115;50.170;8.242;2023-07-29T07:46:43;18.90;99.90
8261;DHT22;64115;50.170;8.242;2023-07-29T07:49:10;19.10;99.90
8261;DHT22;64115;50.170;8.242;2023-07-29T07:51:38;19.40;99.90
8261;DHT22;64115;50.170;8.242;2023-07-29T07:54:07;19.80;99.90
8261;DHT22;64115;50.170;8.242;2023-07-29T07:56:34;20.20;99.90
8261;DHT22;64115;50.170;8.242;2023-07-29T07:59:02;20.60;99.90
8261;DHT22;64115;50.170;8.242;2023-07-29T08:01:34;20.90;99.90
8261;DHT22;64115;50.170;8.242;2023-07-29T08:04:01;21.00;99.90
8261;DHT22;64115;50.170;8.242;2023-07-29T08:06:28;21.00;99.90
8261;DHT22;64115;50.170;8.242;2023-07-29T08:08:54;21.00;99.90
8261;DHT22;64115;50.170;8.242;2023-07-29T08:11:21;21.10;99.90
8261;DHT22;64115;50.170;8.242;2023-07-29T08:13:48;21.20;99.90
8261;DHT22;64115;50.170;8.242;2023-07-29T08:16:17;21.20;99.90
8261;DHT22;64115;50.170;8.242;2023-07-29T08:18:44;21.40;99.90
8261;DHT22;64115;50.170;8.242;2023-07-29T08:21:11;21.70;99.90
8261;DHT22;64115;50.170;8.242;2023-07-29T08:23:37;21.80;99.90
8261;DHT22;64115;50.170;8.242;2023-07-29T08:26:05;21.90;99.90
8261;DHT22;64115;50.170;8.242;2023-07-29T08:28:34;22.00;99.90
8261;DHT22;64115;50.170;8.242;2023-07-29T08:31:01;22.10;99.90
8261;DHT22;64115;50.170;8.242;2023-07-29T08:33:30;22.00;99.90
8261;DHT22;64115;50.170;8.242;2023-07-29T08:35:58;22.10;99.90
8261;DHT22;64115;50.170;8.242;2023-07-29T08:38:25;21.90;99.90
8261;DHT22;64115;50.170;8.242;2023-07-29T08:40:57;22.10;99.90
8261;DHT22;64115;50.170;8.242;2023-07-29T08:43:29;22.30;99.90
8261;DHT22;64115;50.170;8.242;2023-07-29T08:45:58;22.60;99.90
8261;DHT22;64115;50.170;8.242;2023-07-29T08:48:40;22.60;99.90
8261;DHT22;64115;50.170;8.242;2023-07-29T08:51:08;22.70;99.90
8261;DHT22;64115;50.170;8.242;2023-07-29T08:53:37;22.90;99.90
8261;DHT22;64115;50.170;8.242;2023-07-29T08:56:05;22.90;99.90
8261;DHT22;64115;50.170;8.242;2023-07-29T08:58:32;22.80;99.90
8261;DHT22;64115;50.170;8.242;2023-07-29T09:01:00;22.70;99.90
8261;DHT22;64115;50.170;8.242;2023-07-29T09:03:30;22.60;99.90
8261;DHT22;64115;50.170;8.242;2023-07-29T09:05:58;22.70;99.90
8261;DHT22;64115;50.170;8.242;2023-07-29T09:08:26;23.00;99.90
8261;DHT22;64115;50.170;8.242;2023-07-29T09:10:53;23.40;99.90
8261;DHT22;64115;50.170;8.242;2023-07-29T09:13:20;23.50;99.90
8261;DHT22;64115;50.170;8.242;2023-07-29T09:15:47;23.60;99.90
8261;DHT22;64115;50.170;8.242;2023-07-29T09:18:16;23.40;99.90
8261;DHT22;64115;50.170;8.242;2023-07-29T09:20:43;23.40;99.90
8261;DHT22;64115;50.170;8.242;2023-07-29T09:23:11;23.30;99.90
8261;DHT22;64115;50.170;8.242;2023-07-29T09:25:39;23.10;99.90
8261;DHT22;64115;50.170;8.242;2023-07-29T09:28:10;23.00;99.90
8261;DHT22;64115;50.170;8.242;2023-07-29T09:30:38;23.20;99.90
8261;DHT22;64115;50.170;8.242;2023-07-29T09:33:04;23.10;99.90
8261;DHT22;64115;50.170;8.242;2023-07-29T09:35:36;23.20;99.90
8261;DHT22;64115;50.170;8.242;2023-07-29T09:38:04;23.10;99.90
8261;DHT22;64115;50.170;8.242;2023-07-29T09:40:36;23.30;99.90
8261;DHT22;64115;50.170;8.242;2023-07-29T09:43:04;23.70;99.90
8261;DHT22;64115;50.170;8.242;2023-07-29T09:45:34;23.80;99.90
8261;DHT22;64115;50.170;8.242;2023-07-29T09:48:01;23.80;99.90
8261;DHT22;64115;50.170;8.242;2023-07-29T09:50:28;24.00;99.90
8261;DHT22;64115;50.170;8.242;2023-07-29T09:52:56;24.20;99.90
8261;DHT22;64115;50.170;8.242;2023-07-29T09:55:25;24.00;99.90
8261;DHT22;64115;50.170;8.242;2023-07-29T09:57:56;23.80;99.90
8261;DHT22;64115;50.170;8.242;2023-07-29T10:00:26;23.50;99.90
8261;DHT22;64115;50.170;8.242;2023-07-29T10:02:54;23.40;99.90
8261;DHT22;64115;50.170;8.242;2023-07-29T10:05:22;23.10;99.90
8261;DHT22;64115;50.170;8.242;2023-07-29T10:07:49;22.80;99.90
8261;DHT22;64115;50.170;8.242;2023-07-29T10:10:16;22.50;99.90
8261;DHT22;64115;50.170;8.242;2023-07-29T10:12:43;22.60;99.90
8261;DHT22;64115;50.170;8.242;2023-07-29T10:15:12;22.70;99.90
8261;DHT22;64115;50.170;8.242;2023-07-29T10:17:40;22.70;99.90
8261;DHT22;64115;50.170;8.242;2023-07-29T10:20:08;23.00;99.90
8261;DHT22;64115;50.170;8.242;2023-07-29T10:22:37;23.20;99.90
8261;DHT22;64115;50.170;8.242;2023-07-29T10:25:12;23.50;99.90
8261;DHT22;64115;50.170;8.242;2023-07-29T10:27:43;23.90;99.90
8261;DHT22;64115;50.170;8.242;2023-07-29T10:30:15;24.10;99.90
8261;DHT22;64115;50.170;8.242;2023-07-29T10:32:43;24.00;99.90
8261;DHT22;64115;50.170;8.242;2023-07-29T10:35:11;23.70;99.90
8261;DHT22;64115;50.170;8.242;2023-07-29T10:37:39;23.20;99.90
8261;DHT22;64115;50.170;8.242;2023-07-29T10:40:07;22.70;99.90
8261;DHT22;64115;50.170;8.242;2023-07-29T10:42:34;22.50;99.90
8261;DHT22;64115;50.170;8.242;2023-07-29T10:45:19;22.60;99.90
8261;DHT22;64115;50.170;8.242;2023-07-29T10:47:47;23.10;99.90
8261;DHT22;64115;50.170;8.242;2023-07-29T10:50:18;23.50;99.90
8261;DHT22;64115;50.170;8.242;2023-07-29T10:52:52;23.80;99.90
8261;DHT22;64115;50.170;8.242;2023-07-29T10:55:30;24.00;99.90
8261;DHT22;64115;50.170;8.242;2023-07-29T10:58:06;23.80;99.90
8261;DHT22;64115;50.170;8.242;2023-07-29T11:00:34;23.80;99.90
8261;DHT22;64115;50.170;8.242;2023-07-29T11:03:02;23.60;99.90
8261;DHT22;64115;50.170;8.242;2023-07-29T11:05:45;23.50;99.90
8261;DHT22;64115;50.170;8.242;2023-07-29T11:08:19;23.60;99.90
8261;DHT22;64115;50.170;8.242;2023-07-29T11:11:01;23.50;99.90
8261;DHT22;64115;50.170;8.242;2023-07-29T11:13:33;23.50;99.90
8261;DHT22;64115;50.170;8.242;2023-07-29T11:16:02;23.20;99.90
8261;DHT22;64115;50.170;8.242;2023-07-29T11:18:30;23.50;99.90
8261;DHT22;64115;50.170;8.242;2023-07-29T11:20:59;23.80;99.90
8261;DHT22;64115;50.170;8.242;2023-07-29T11:23:31;24.20;99.90
8261;DHT22;64115;50.170;8.242;2023-07-29T11:25:58;24.20;99.90
8261;DHT22;64115;50.170;8.242;2023-07-29T11:28:25;24.00;99.90
8261;DHT22;64115;50.170;8.242;2023-07-29T11:30:56;23.80;99.90
8261;DHT22;64115;50.170;8.242;2023-07-29T11:33:26;23.50;99.90
8261;DHT22;64115;50.170;8.242;2023-07-29T11:35:54;23.30;99.90
8261;DHT22;64115;50.170;8.242;2023-07-29T11:38:22;23.30;99.90
8261;DHT22;64115;50.170;8.242;2023-07-29T11:40:56;23.40;99.90
8261;DHT22;64115;50.170;8.242;2023-07-29T11:43:23;23.60;99.90
8261;DHT22;64115;50.170;8.242;2023-07-29T11:45:51;23.70;99.90
8261;DHT22;64115;50.170;8.242;2023-07-29T11:48:18;23.80;99.90
8261;DHT22;64115;50.170;8.242;2023-07-29T11:50:48;24.10;99.90
8261;DHT22;64115;50.170;8.242;2023-07-29T11:53:15;24.10;99.90
8261;DHT22;64115;50.170;8.242;2023-07-29T11:55:42;24.10;99.90
8261;DHT22;64115;50.170;8.242;2023-07-29T11:58:09;24.20;99.90
8261;DHT22;64115;50.170;8.242;2023-07-29T12:00:37;24.30;99.90
8261;DHT22;64115;50.170;8.242;2023-07-29T12:03:06;24.50;99.90
8261;DHT22;64115;50.170;8.242;2023-07-29T12:05:35;24.60;99.90
8261;DHT22;64115;50.170;8.242;2023-07-29T12:08:03;24.50;99.90
8261;DHT22;64115;50.170;8.242;2023-07-29T12:10:31;24.40;99.90
8261;DHT22;64115;50.170;8.242;2023-07-29T12:12:58;24.40;99.90
8261;DHT22;64115;50.170;8.242;2023-07-29T12:15:26;24.70;99.90
8261;DHT22;64115;50.170;8.242;2023-07-29T12:17:54;24.70;99.90
8261;DHT22;64115;50.170;8.242;2023-07-29T12:20:22;24.70;99.90
8261;DHT22;64115;50.170;8.242;2023-07-29T12:22:53;24.80;99.90
8261;DHT22;64115;50.170;8.242;2023-07-29T12:25:22;24.70;99.90
8261;DHT22;64115;50.170;8.242;2023-07-29T12:27:49;24.50;99.90
8261;DHT22;64115;50.170;8.242;2023-07-29T12:30:16;24.10;99.90
8261;DHT22;64115;50.170;8.242;2023-07-29T12:32:47;23.90;99.90
8261;DHT22;64115;50.170;8.242;2023-07-29T12:35:14;23.80;99.90
8261;DHT22;64115;50.170;8.242;2023-07-29T12:37:41;23.80;99.90
8261;DHT22;64115;50.170;8.242;2023-07-29T12:40:21;23.70;99.90
8261;DHT22;64115;50.170;8.242;2023-07-29T12:42:49;23.50;99.90
8261;DHT22;64115;50.170;8.242;2023-07-29T12:45:17;23.30;99.90
8261;DHT22;64115;50.170;8.242;2023-07-29T12:47:44;23.10;99.90
8261;DHT22;64115;50.170;8.242;2023-07-29T12:50:11;23.00;99.90
8261;DHT22;64115;50.170;8.242;2023-07-29T12:52:37;23.00;99.90
8261;DHT22;64115;50.170;8.242;2023-07-29T12:55:05;23.20;99.90
8261;DHT22;64115;50.170;8.242;2023-07-29T12:57:35;23.30;99.90
8261;DHT22;64115;50.170;8.242;2023-07-29T13:00:02;23.50;99.90
8261;DHT22;64115;50.170;8.242;2023-07-29T13:02:29;23.50;99.90
8261;DHT22;64115;50.170;8.242;2023-07-29T13:04:56;23.50;99.90
8261;DHT22;64115;50.170;8.242;2023-07-29T13:07:23;23.50;99.90
8261;DHT22;64115;50.170;8.242;2023-07-29T13:09:49;23.80;99.90
8261;DHT22;64115;50.170;8.242;2023-07-29T13:12:16;24.00;99.90
8261;DHT22;64115;50.170;8.242;2023-07-29T13:14:44;24.20;99.90
8261;DHT22;64115;50.170;8.242;2023-07-29T13:17:11;24.70;99.90
8261;DHT22;64115;50.170;8.242;2023-07-29T13:19:38;24.80;99.90
8261;DHT22;64115;50.170;8.242;2023-07-29T13:22:05;24.80;99.90
8261;DHT22;64115;50.170;8.242;2023-07-29T13:24:34;24.70;99.90
8261;DHT22;64115;50.170;8.242;2023-07-29T13:27:01;24.70;99.90
8261;DHT22;64115;50.170;8.242;2023-07-29T13:29:28;24.80;99.90
8261;DHT22;64115;50.170;8.242;2023-07-29T13:31:56;24.90;99.90
8261;DHT22;64115;50.170;8.242;2023-07-29T13:34:23;24.80;99.90
8261;DHT22;64115;50.170;8.242;2023-07-29T13:36:50;24.70;99.90
8261;DHT22;64115;50.170;8.242;2023-07-29T13:39:16;24.70;99.90
8261;DHT22;64115;50.170;8.242;2023-07-29T13:41:43;24.80;99.90
8261;DHT22;64115;50.170;8.242;2023-07-29T13:44:10;24.60;99.90
8261;DHT22;64115;50.170;8.242;2023-07-29T13:46:37;24.40;99.90
8261;DHT22;64115;50.170;8.242;2023-07-29T13:49:06;24.20;99.90
8261;DHT22;64115;50.170;8.242;2023-07-29T13:51:33;24.10;99.90
8261;DHT22;64115;50.170;8.242;2023-07-29T13:54:00;23.80;99.90
8261;DHT22;64115;50.170;8.242;2023-07-29T13:56:27;23.60;99.90
8261;DHT22;64115;50.170;8.242;2023-07-29T13:58:53;23.50;99.90
8261;DHT22;64115;50.170;8.242;2023-07-29T14:01:20;23.60;99.90
8261;DHT22;64115;50.170;8.242;2023-07-29T14:03:47;23.60;99.90
8261;DHT22;64115;50.170;8.242;2023-07-29T14:06:16;23.80;99.90
8261;DHT22;64115;50.170;8.242;2023-07-29T14:08:43;24.00;99.90
8261;DHT22;64115;50.170;8.242;2023-07-29T14:11:10;24.30;99.90
8261;DHT22;64115;50.170;8.242;2023-07-29T14:13:37;24.40;99.90
8261;DHT22;64115;50.170;8.242;2023-07-29T14:16:05;24.60;99.90
8261;DHT22;64115;50.170;8.242;2023-07-29T14:18:32;24.70;99.90
8261;DHT22;64115;50.170;8.242;2023-07-29T14:20:59;24.70;99.90
8261;DHT22;64115;50.170;8.242;2023-07-29T14:23:27;24.80;99.90
8261;DHT22;64115;50.170;8.242;2023-07-29T14:25:55;24.70;99.90
8261;DHT22;64115;50.170;8.242;2023-07-29T14:28:22;24.70;99.90
8261;DHT22;64115;50.170;8.242;2023-07-29T14:30:49;24.70;99.90
8261;DHT22;64115;50.170;8.242;2023-07-29T14:33:16;24.70;99.90
8261;DHT22;64115;50.170;8.242;2023-07-29T14:35:43;24.60;99.90
8261;DHT22;64115;50.170;8.242;2023-07-29T14:38:09;24.40;99.90
8261;DHT22;64115;50.170;8.242;2023-07-29T14:40:37;24.20;99.90
8261;DHT22;64115;50.170;8.242;2023-07-29T14:43:05;24.20;99.90
8261;DHT22;64115;50.170;8.242;2023-07-29T14:45:31;24.30;99.90
8261;DHT22;64115;50.170;8.242;2023-07-29T14:47:58;24.50;99.90
8261;DHT22;64115;50.170;8.242;2023-07-29T14:50:25;24.70;99.90
8261;DHT22;64115;50.170;8.242;2023-07-29T14:52:52;24.60;99.90
8261;DHT22;64115;50.170;8.242;2023-07-29T14:55:18;24.30;99.90
8261;DHT22;64115;50.170;8.242;2023-07-29T14:57:47;24.50;99.90
8261;DHT22;64115;50.170;8.242;2023-07-29T15:00:14;24.70;99.90
8261;DHT22;64115;50.170;8.242;2023-07-29T15:02:41;24.70;99.90
8261;DHT22;64115;50.170;8.242;2023-07-29T15:05:08;24.70;99.90
8261;DHT22;64115;50.170;8.242;2023-07-29T15:07:35;24.60;99.90
8261;DHT22;64115;50.170;8.242;2023-07-29T15:10:01;24.60;99.90
8261;DHT22;64115;50.170;8.242;2023-07-29T15:12:28;24.70;99.90
8261;DHT22;64115;50.170;8.242;2023-07-29T15:14:56;24.70;99.90
8261;DHT22;64115;50.170;8.242;2023-07-29T15:17:23;24.80;99.90
8261;DHT22;64115;50.170;8.242;2023-07-29T15:19:50;24.60;99.90
8261;DHT22;64115;50.170;8.242;2023-07-29T15:22:17;24.40;99.90
8261;DHT22;64115;50.170;8.242;2023-07-29T15:24:43;24.20;99.90
8261;DHT22;64115;50.170;8.242;2023-07-29T15:27:11;24.40;99.90
8261;DHT22;64115;50.170;8.242;2023-07-29T15:29:38;24.60;99.90
8261;DHT22;64115;50.170;8.242;2023-07-29T15:32:07;24.70;99.90
8261;DHT22;64115;50.170;8.242;2023-07-29T15:34:36;24.60;99.90
8261;DHT22;64115;50.170;8.242;2023-07-29T15:37:03;24.60;99.90
8261;DHT22;64115;50.170;8.242;2023-07-29T15:39:30;24.70;99.90
8261;DHT22;64115;50.170;8.242;2023-07-29T15:41:58;24.90;99.90
8261;DHT22;64115;50.170;8.242;2023-07-29T15:44:24;25.10;99.90
8261;DHT22;64115;50.170;8.242;2023-07-29T15:46:51;25.20;99.90
8261;DHT22;64115;50.170;8.242;2023-07-29T15:49:19;24.90;99.90